createdAt,value
2023-02-05T00:02:00.792Z,18.70
2023-02-05T00:07:03.892Z,18.93
2023-02-05T00:09:31.599Z,18.20
2023-02-05T00:12:00.868Z,18.50
2023-02-05T00:14:28.788Z,19.67
2023-02-05T00:16:56.699Z,18.73
2023-02-05T00:19:24.385Z,19.57
2023-02-05T00:21:52.296Z,19.40
2023-02-05T00:24:19.950Z,18.87
2023-02-05T00:26:47.773Z,20.77
2023-02-05T00:29:16.946Z,18.13
2023-02-05T00:31:44.998Z,18.90
2023-02-05T00:34:12.683Z,18.60
2023-02-05T00:36:40.467Z,18.40
2023-02-05T00:39:09.123Z,20.23
2023-02-05T00:41:36.913Z,18.77
2023-02-05T00:44:04.611Z,19.43
2023-02-05T00:46:33.753Z,19.63
2023-02-05T00:49:01.474Z,19.50
2023-02-05T00:51:29.309Z,18.77
2023-02-05T00:53:57.023Z,17.80
2023-02-05T00:56:24.849Z,19.87
2023-02-05T00:58:52.811Z,19.20
2023-02-05T01:01:21.644Z,22.57
2023-02-05T01:03:50.680Z,20.87
2023-02-05T01:06:18.338Z,21.17
2023-02-05T01:08:46.138Z,20.80
2023-02-05T01:11:14.957Z,20.13
2023-02-05T01:13:42.892Z,20.27
2023-02-05T01:16:11.328Z,19.77
2023-02-05T01:18:39.438Z,19.33
2023-02-05T01:21:08.436Z,19.67
2023-02-05T01:23:36.198Z,19.03
2023-02-05T01:26:03.836Z,19.53
2023-02-05T01:28:31.640Z,19.33
2023-02-05T01:30:59.452Z,19.93
2023-02-05T01:33:27.278Z,19.37
2023-02-05T01:35:54.916Z,19.40
2023-02-05T01:38:24.042Z,17.90
2023-02-05T01:40:51.720Z,15.40
2023-02-05T01:43:19.584Z,14.00
2023-02-05T01:46:17.845Z,14.53
2023-02-05T01:48:47.115Z,14.40
2023-02-05T01:51:15.142Z,14.17
2023-02-05T01:53:44.172Z,15.07
2023-02-05T01:56:13.758Z,14.53
2023-02-05T01:58:43.430Z,14.83
2023-02-05T02:01:11.288Z,14.03
2023-02-05T02:03:39.000Z,14.67
2023-02-05T02:06:07.253Z,15.83
2023-02-05T02:08:35.066Z,15.33
2023-02-05T02:11:05.490Z,14.70
2023-02-05T02:13:33.611Z,15.37
2023-02-05T02:16:01.423Z,15.50
2023-02-05T02:18:29.377Z,15.87
2023-02-05T02:21:12.125Z,15.70
2023-02-05T02:23:41.398Z,14.23
2023-02-05T02:26:33.595Z,15.50
2023-02-05T02:29:03.424Z,15.53
2023-02-05T02:31:32.655Z,15.43
2023-02-05T02:34:02.489Z,15.13
2023-02-05T02:36:31.655Z,16.30
2023-02-05T02:39:03.324Z,16.17
2023-02-05T02:41:32.819Z,16.60
2023-02-05T02:44:03.500Z,15.90
2023-02-05T02:46:32.778Z,16.33
2023-02-05T02:49:02.630Z,15.77
2023-02-05T02:51:30.470Z,15.50
2023-02-05T02:53:59.108Z,17.30
2023-02-05T02:56:28.084Z,16.57
2023-02-05T02:58:57.062Z,17.90
2023-02-05T03:01:27.095Z,16.87
2023-02-05T03:03:55.494Z,15.90
2023-02-05T03:06:23.274Z,17.37
2023-02-05T03:08:53.222Z,15.73
2023-02-05T03:11:20.888Z,17.27
2023-02-05T03:13:48.729Z,17.10
2023-02-05T03:16:18.019Z,17.37
2023-02-05T03:18:47.300Z,18.50
2023-02-05T03:21:16.323Z,16.70
2023-02-05T03:23:44.086Z,17.17
2023-02-05T03:26:36.083Z,17.73
2023-02-05T03:29:05.828Z,16.67
2023-02-05T03:31:36.842Z,17.13
2023-02-05T03:34:11.775Z,16.90
2023-02-05T03:36:44.030Z,18.20
2023-02-05T03:39:22.375Z,17.13
2023-02-05T03:41:59.094Z,17.93
2023-02-05T03:44:38.929Z,17.60
2023-02-05T03:47:08.230Z,17.87
2023-02-05T03:49:42.848Z,17.43
2023-02-05T03:52:12.861Z,17.40
2023-02-05T03:54:42.996Z,17.77
2023-02-05T03:57:12.502Z,16.03
2023-02-05T03:59:40.291Z,16.87
2023-02-05T04:02:09.291Z,16.77
2023-02-05T04:04:38.315Z,16.93
2023-02-05T04:07:06.005Z,17.60
2023-02-05T04:09:33.809Z,18.00
2023-02-05T04:12:01.541Z,17.67
2023-02-05T04:14:29.333Z,16.63
2023-02-05T04:16:57.005Z,17.20
2023-02-05T04:19:24.890Z,16.63
2023-02-05T04:21:53.966Z,17.43
2023-02-05T04:24:21.729Z,16.80
2023-02-05T04:26:50.957Z,16.30
2023-02-05T04:29:18.781Z,17.13
2023-02-05T04:31:46.501Z,17.40
2023-02-05T04:34:14.336Z,17.87
2023-02-05T04:36:42.072Z,16.70
2023-02-05T04:39:11.283Z,16.37
2023-02-05T04:41:38.954Z,16.93
2023-02-05T04:44:07.035Z,16.67
2023-02-05T04:46:34.697Z,16.80
2023-02-05T04:49:02.455Z,16.10
2023-02-05T04:51:30.185Z,17.07
2023-02-05T04:53:58.059Z,16.63
2023-02-05T04:56:27.303Z,18.43
2023-02-05T04:58:55.040Z,16.50
2023-02-05T05:01:23.420Z,14.77
2023-02-05T05:03:51.184Z,13.67
2023-02-05T05:06:19.014Z,12.43
2023-02-05T05:08:46.752Z,11.90
2023-02-05T05:11:15.500Z,13.57
2023-02-05T05:13:44.621Z,11.07
2023-02-05T05:16:12.822Z,10.93
2023-02-05T05:18:40.666Z,12.33
2023-02-05T05:21:08.774Z,11.90
2023-02-05T05:23:36.908Z,12.37
2023-02-05T05:26:06.484Z,11.43
2023-02-05T05:28:34.873Z,11.83
2023-02-05T05:31:09.130Z,11.77
2023-02-05T05:33:36.867Z,13.03
2023-02-05T05:36:05.138Z,12.50
2023-02-05T05:38:32.856Z,13.07
2023-02-05T05:41:18.345Z,13.20
2023-02-05T05:43:49.028Z,13.80
2023-02-05T05:46:22.000Z,14.47
2023-02-05T05:48:50.897Z,13.87
2023-02-05T05:51:19.003Z,15.57
2023-02-05T05:53:46.838Z,14.93
2023-02-05T05:56:15.670Z,15.73
2023-02-05T05:58:43.355Z,16.60
2023-02-05T06:01:11.134Z,17.37
2023-02-05T06:03:40.145Z,17.37
2023-02-05T06:06:08.542Z,16.80
2023-02-05T06:08:36.427Z,17.93
2023-02-05T06:11:04.152Z,18.87
2023-02-05T06:13:31.860Z,19.30
2023-02-05T06:15:59.523Z,20.27
2023-02-05T06:18:27.314Z,20.97
2023-02-05T06:20:56.310Z,23.50
2023-02-05T06:23:24.134Z,23.97
2023-02-05T06:25:51.846Z,23.40
2023-02-05T06:28:19.613Z,24.67
2023-02-05T06:30:47.482Z,26.23
2023-02-05T06:33:15.348Z,25.80
2023-02-05T06:35:43.127Z,25.50
2023-02-05T06:38:12.260Z,27.13
2023-02-05T06:40:39.957Z,26.83
2023-02-05T06:43:07.822Z,28.83
2023-02-05T06:45:35.974Z,27.53
2023-02-05T06:48:03.969Z,27.97
2023-02-05T06:50:31.714Z,29.20
2023-02-05T06:52:59.457Z,30.20
2023-02-05T06:55:28.634Z,30.80
2023-02-05T06:57:56.299Z,30.17
2023-02-05T07:00:24.122Z,31.17
2023-02-05T07:02:53.185Z,32.93
2023-02-05T07:05:21.030Z,32.33
2023-02-05T07:07:49.944Z,32.40
2023-02-05T07:10:18.737Z,32.70
2023-02-05T07:12:48.013Z,32.77
2023-02-05T07:15:15.732Z,34.37
2023-02-05T07:17:43.438Z,33.33
2023-02-05T07:20:12.234Z,32.83
2023-02-05T07:22:40.069Z,32.80
2023-02-05T07:25:08.658Z,31.53
2023-02-05T07:27:37.425Z,30.73
2023-02-05T07:30:08.197Z,30.40
2023-02-05T07:32:36.922Z,30.10
2023-02-05T07:35:04.887Z,29.63
2023-02-05T07:37:33.196Z,30.93
2023-02-05T07:40:00.923Z,28.73
2023-02-05T07:42:31.313Z,27.60
2023-02-05T07:44:59.633Z,28.37
2023-02-05T07:47:29.814Z,25.63
2023-02-05T07:49:57.523Z,24.00
2023-02-05T07:52:26.298Z,24.77
2023-02-05T07:54:54.111Z,24.77
2023-02-05T07:57:21.886Z,22.47
2023-02-05T07:59:49.552Z,21.47
2023-02-05T08:02:17.339Z,20.77
2023-02-05T08:04:46.627Z,21.10
2023-02-05T08:07:14.532Z,21.43
2023-02-05T08:09:42.276Z,20.87
2023-02-05T08:12:10.113Z,20.10
2023-02-05T08:14:38.084Z,19.13
2023-02-05T08:17:07.036Z,16.60
2023-02-05T08:19:35.967Z,14.77
2023-02-05T08:22:05.101Z,13.57
2023-02-05T08:24:32.955Z,12.83
2023-02-05T08:27:00.644Z,11.17
2023-02-05T08:29:28.352Z,10.87
2023-02-05T08:31:56.023Z,10.10
2023-02-05T08:34:23.842Z,11.97
2023-02-05T08:36:51.652Z,12.47
2023-02-05T08:39:20.837Z,11.97
2023-02-05T08:41:48.497Z,12.40
2023-02-05T08:44:16.333Z,13.00
2023-02-05T08:46:50.062Z,13.63
2023-02-05T08:49:18.313Z,13.97
2023-02-05T08:51:45.968Z,13.30
2023-02-05T08:54:15.155Z,12.17
2023-02-05T08:56:44.800Z,11.43
2023-02-05T08:59:12.593Z,12.07
2023-02-05T09:01:41.453Z,9.47
2023-02-05T09:04:09.174Z,10.10
2023-02-05T09:06:37.202Z,8.03
2023-02-05T09:09:04.902Z,5.17
2023-02-05T09:11:32.594Z,4.70
2023-02-05T09:14:01.698Z,4.00
2023-02-05T09:16:29.442Z,3.47
2023-02-05T09:18:57.255Z,3.17
2023-02-05T09:21:25.174Z,2.70
2023-02-05T09:23:52.925Z,2.37
2023-02-05T09:26:23.764Z,2.00
2023-02-05T09:28:51.438Z,2.27
2023-02-05T09:31:21.505Z,1.67
2023-02-05T09:33:49.417Z,1.90
2023-02-05T09:36:18.022Z,8.00
2023-02-05T09:38:46.148Z,1.83
2023-02-05T09:41:18.824Z,1.90
2023-02-05T09:43:49.571Z,2.13
2023-02-05T09:46:20.998Z,2.10
2023-02-05T09:48:50.687Z,2.30
2023-02-05T09:51:21.050Z,2.50
2023-02-05T09:53:54.332Z,6.07
2023-02-05T09:56:21.992Z,2.70
2023-02-05T09:58:50.768Z,2.93
2023-02-05T10:01:23.426Z,2.17
2023-02-05T10:03:54.241Z,2.83
2023-02-05T10:06:33.337Z,2.67
2023-02-05T10:09:03.353Z,2.80
2023-02-05T10:11:35.411Z,2.20
2023-02-05T10:14:05.910Z,2.10
2023-02-05T10:16:54.014Z,2.70
2023-02-05T10:19:47.861Z,2.50
2023-02-05T10:22:18.523Z,2.47
2023-02-05T10:24:56.284Z,2.47
2023-02-05T10:27:24.525Z,2.60
2023-02-05T10:29:58.102Z,2.30
2023-02-05T10:32:31.801Z,2.30
2023-02-05T10:35:02.748Z,2.93
2023-02-05T10:37:39.631Z,2.57
2023-02-05T10:40:13.357Z,2.47
2023-02-05T10:42:42.808Z,2.70
2023-02-05T10:45:16.845Z,2.50
2023-02-05T10:48:02.357Z,2.30
2023-02-05T10:50:32.042Z,1.97
2023-02-05T10:52:59.918Z,2.03
2023-02-05T10:55:27.632Z,1.37
2023-02-05T10:57:55.485Z,1.50
2023-02-05T11:00:23.679Z,1.30
2023-02-05T11:02:56.320Z,1.20
2023-02-05T11:05:26.296Z,1.20
2023-02-05T11:07:54.683Z,1.20
2023-02-05T11:10:23.194Z,1.17
2023-02-05T11:12:52.466Z,1.00
2023-02-05T11:15:22.367Z,1.10
2023-02-05T11:17:54.064Z,1.10
2023-02-05T11:20:30.388Z,1.23
2023-02-05T11:23:08.692Z,1.63
2023-02-05T11:25:36.328Z,1.57
2023-02-05T11:28:04.877Z,1.17
2023-02-05T11:30:50.886Z,0.97
2023-02-05T11:33:25.425Z,1.47
2023-02-05T11:35:55.730Z,2.93
2023-02-05T11:38:29.867Z,5.77
2023-02-05T11:40:58.872Z,1.60
2023-02-05T11:43:28.616Z,1.80
2023-02-05T11:45:57.174Z,1.90
2023-02-05T11:48:31.149Z,2.07
2023-02-05T11:51:00.218Z,1.80
2023-02-05T11:53:28.029Z,1.60
2023-02-05T11:55:56.876Z,2.47
2023-02-05T11:58:36.126Z,2.43
2023-02-05T12:01:05.678Z,5.30
2023-02-05T12:03:34.017Z,4.93
2023-02-05T12:06:08.552Z,6.33
2023-02-05T12:08:39.717Z,5.00
2023-02-05T12:11:58.095Z,3.40
2023-02-05T12:14:30.029Z,1.90
2023-02-05T12:17:01.220Z,3.30
2023-02-05T12:19:33.120Z,2.57
2023-02-05T12:22:03.531Z,2.47
2023-02-05T12:25:07.759Z,2.93
2023-02-05T12:27:42.209Z,2.57
2023-02-05T12:30:20.904Z,2.37
2023-02-05T12:32:51.977Z,2.23
2023-02-05T12:35:35.456Z,5.37
2023-02-05T12:38:09.600Z,2.57
2023-02-05T12:40:42.000Z,3.07
2023-02-05T12:43:16.085Z,2.40
2023-02-05T12:45:48.834Z,3.10
2023-02-05T12:48:34.679Z,3.30
2023-02-05T12:51:09.596Z,3.30
2023-02-05T12:53:54.549Z,4.10
2023-02-05T12:56:34.938Z,3.53
2023-02-05T12:59:03.776Z,3.93
2023-02-05T13:01:38.395Z,3.00
2023-02-05T13:04:06.152Z,3.43
2023-02-05T13:06:35.179Z,2.80
2023-02-05T13:09:06.281Z,2.70
2023-02-05T13:11:36.279Z,3.43
2023-02-05T13:14:07.599Z,2.87
2023-02-05T13:16:38.117Z,3.00
2023-02-05T13:19:11.975Z,3.50
2023-02-05T13:21:57.106Z,4.40
2023-02-05T13:24:48.014Z,3.00
2023-02-05T13:27:38.398Z,3.10
2023-02-05T13:30:07.684Z,3.83
2023-02-05T13:32:35.557Z,3.00
2023-02-05T13:35:03.384Z,3.37
2023-02-05T13:38:02.408Z,2.80
2023-02-05T13:40:39.815Z,2.70
2023-02-05T13:43:35.048Z,3.13
2023-02-05T13:46:18.759Z,2.50
2023-02-05T13:49:08.784Z,2.70
2023-02-05T13:51:45.290Z,2.63
2023-02-05T13:54:58.993Z,3.70
2023-02-05T13:58:20.315Z,3.90
2023-02-05T14:03:35.742Z,3.40
2023-02-05T14:06:14.500Z,3.37
2023-02-05T14:08:42.204Z,3.77
2023-02-05T14:11:09.947Z,4.30
2023-02-05T14:13:39.006Z,3.43
2023-02-05T14:16:36.127Z,3.30
2023-02-05T14:19:22.853Z,3.30
2023-02-05T14:22:12.715Z,3.20
2023-02-05T14:24:47.904Z,3.00
2023-02-05T14:27:52.095Z,3.90
2023-02-05T14:30:49.907Z,3.23
2023-02-05T14:33:31.651Z,2.90
2023-02-05T14:35:59.552Z,3.27
2023-02-05T14:38:29.821Z,22.77
2023-02-05T14:41:05.239Z,5.67
2023-02-05T14:43:33.673Z,3.43
2023-02-05T14:46:05.299Z,3.43
2023-02-05T14:48:34.267Z,2.93
2023-02-05T14:51:03.585Z,3.30
2023-02-05T14:53:31.305Z,3.07
2023-02-05T14:56:00.056Z,3.20
2023-02-05T14:58:29.720Z,3.10
2023-02-05T15:01:41.681Z,3.53
2023-02-05T15:04:23.156Z,3.77
2023-02-05T15:06:50.854Z,4.10
2023-02-05T15:09:20.759Z,3.50
2023-02-05T15:11:55.133Z,3.80
2023-02-05T15:14:32.991Z,3.57
2023-02-05T15:17:48.660Z,3.17
2023-02-05T15:20:25.796Z,4.57
2023-02-05T15:22:56.678Z,4.10
2023-02-05T15:25:34.137Z,3.73
2023-02-05T15:28:03.146Z,2.77
2023-02-05T15:30:33.298Z,3.10
2023-02-05T15:33:03.160Z,3.97
2023-02-05T15:35:32.269Z,5.03
2023-02-05T15:38:03.177Z,3.50
2023-02-05T15:40:32.081Z,3.03
2023-02-05T15:43:00.696Z,3.17
2023-02-05T15:45:29.439Z,3.00
2023-02-05T15:48:01.164Z,3.43
2023-02-05T15:50:29.061Z,4.20
2023-02-05T15:52:58.185Z,3.00
2023-02-05T15:55:27.623Z,2.90
2023-02-05T15:58:01.581Z,2.77
2023-02-05T16:00:31.188Z,3.00
2023-02-05T16:03:00.112Z,2.93
2023-02-05T16:05:28.581Z,3.17
2023-02-05T16:07:58.707Z,3.47
2023-02-05T16:10:29.099Z,5.20
2023-02-05T16:13:00.761Z,2.63
2023-02-05T16:15:30.731Z,2.73
2023-02-05T16:17:59.666Z,3.07
2023-02-05T16:20:29.451Z,2.63
2023-02-05T16:22:58.051Z,3.23
2023-02-05T16:25:34.586Z,3.50
2023-02-05T16:28:04.845Z,2.60
2023-02-05T16:30:35.241Z,2.77
2023-02-05T16:33:03.417Z,2.80
2023-02-05T16:35:33.842Z,3.53
2023-02-05T16:38:03.413Z,3.33
2023-02-05T16:40:36.346Z,3.47
2023-02-05T16:43:21.558Z,3.47
2023-02-05T16:46:22.222Z,3.50
2023-02-05T16:48:51.044Z,3.10
2023-02-05T16:51:38.403Z,3.00
2023-02-05T16:54:35.043Z,3.27
2023-02-05T16:57:07.993Z,3.90
2023-02-05T16:59:37.823Z,2.77
2023-02-05T17:02:05.682Z,3.53
2023-02-05T17:04:34.834Z,3.67
2023-02-05T17:07:03.624Z,2.90
2023-02-05T17:09:33.742Z,3.87
2023-02-05T17:12:39.708Z,3.67
2023-02-05T17:15:36.473Z,3.70
2023-02-05T17:18:19.614Z,4.30
2023-02-05T17:20:47.578Z,4.07
2023-02-05T17:23:16.687Z,3.93
2023-02-05T17:25:53.432Z,4.90
2023-02-05T17:28:24.886Z,4.70
2023-02-05T17:30:53.034Z,4.87
2023-02-05T17:33:21.586Z,5.07
2023-02-05T17:35:49.541Z,6.10
2023-02-05T17:38:17.304Z,4.70
2023-02-05T17:40:48.853Z,4.43
2023-02-05T17:43:16.610Z,4.40
2023-02-05T17:45:45.825Z,4.17
2023-02-05T17:48:13.600Z,4.30
2023-02-05T17:50:41.396Z,3.90
2023-02-05T17:53:11.033Z,5.23
2023-02-05T17:55:38.869Z,4.63
2023-02-05T17:58:06.659Z,4.10
2023-02-05T18:00:34.664Z,4.80
2023-02-05T18:03:07.509Z,3.67
2023-02-05T18:05:35.368Z,4.57
2023-02-05T18:08:03.460Z,3.90
2023-02-05T18:10:32.111Z,3.87
2023-02-05T18:12:59.997Z,4.83
2023-02-05T18:15:27.718Z,4.90
2023-02-05T18:17:55.486Z,4.23
2023-02-05T18:20:24.700Z,9.10
2023-02-05T18:22:52.439Z,4.13
2023-02-05T18:25:20.260Z,5.00
2023-02-05T18:27:48.834Z,3.90
2023-02-05T18:30:16.596Z,4.67
2023-02-05T18:32:44.301Z,4.03
2023-02-05T18:35:14.398Z,4.77
2023-02-05T18:37:43.571Z,5.10
2023-02-05T18:40:12.592Z,3.67
2023-02-05T18:42:41.174Z,4.87
2023-02-05T18:45:10.088Z,4.47
2023-02-05T18:47:37.768Z,4.77
2023-02-05T18:50:06.124Z,5.13
2023-02-05T18:52:33.801Z,4.77
2023-02-05T18:55:02.888Z,5.10
2023-02-05T18:57:30.992Z,4.53
2023-02-05T18:59:58.833Z,5.37
2023-02-05T19:02:26.517Z,4.17
2023-02-05T19:04:56.512Z,4.93
2023-02-05T19:07:24.838Z,3.83
2023-02-05T19:09:53.022Z,4.20
2023-02-05T19:12:22.070Z,5.87
2023-02-05T19:14:49.995Z,6.83
2023-02-05T19:17:21.277Z,5.07
2023-02-05T19:19:50.593Z,10.70
2023-02-05T19:22:18.407Z,5.47
2023-02-05T19:24:48.691Z,4.20
2023-02-05T19:27:18.011Z,5.30
2023-02-05T19:29:47.812Z,6.70
2023-02-05T19:32:15.830Z,4.53
2023-02-05T19:34:45.096Z,4.80
2023-02-05T19:37:12.734Z,4.73
2023-02-05T19:39:40.645Z,4.40
2023-02-05T19:42:09.601Z,3.83
2023-02-05T19:44:37.328Z,5.20
2023-02-05T19:47:07.853Z,3.80
2023-02-05T19:49:35.638Z,4.17
2023-02-05T19:52:03.405Z,3.53
2023-02-05T19:54:31.295Z,5.00
2023-02-05T19:56:58.930Z,3.97
2023-02-05T20:02:00.474Z,3.73
2023-02-05T20:04:30.430Z,3.50
2023-02-05T20:06:59.402Z,4.00
2023-02-05T20:09:27.203Z,3.93
2023-02-05T20:11:56.024Z,4.27
2023-02-05T20:14:24.080Z,4.83
2023-02-05T20:16:52.100Z,3.87
2023-02-05T20:19:20.025Z,3.63
2023-02-05T20:21:49.176Z,3.83
2023-02-05T20:24:17.321Z,3.37
2023-02-05T20:26:45.237Z,3.73
2023-02-05T20:29:30.314Z,4.40
2023-02-05T20:31:59.049Z,5.43
2023-02-05T20:34:30.505Z,3.77
2023-02-05T20:37:00.547Z,4.57
2023-02-05T20:39:29.560Z,4.47
2023-02-05T20:41:59.042Z,3.53
2023-02-05T20:44:27.098Z,3.37
2023-02-05T20:46:57.031Z,4.53
2023-02-05T20:49:24.850Z,5.23
2023-02-05T20:51:53.218Z,3.80
2023-02-05T20:54:22.366Z,4.07
2023-02-05T20:56:51.006Z,3.20
2023-02-05T20:59:18.820Z,4.27
2023-02-05T21:01:46.703Z,2.73
2023-02-05T21:04:21.334Z,3.67
2023-02-05T21:06:49.092Z,3.73
2023-02-05T21:09:17.246Z,3.03
2023-02-05T21:11:46.544Z,3.20
2023-02-05T21:14:14.455Z,3.10
2023-02-05T21:16:42.206Z,3.47
2023-02-05T21:19:10.015Z,3.60
2023-02-05T21:21:38.082Z,3.00
2023-02-05T21:24:07.141Z,3.73
2023-02-05T21:26:35.557Z,3.13
2023-02-05T21:29:05.605Z,4.00
2023-02-05T21:31:38.500Z,4.23
2023-02-05T21:34:07.722Z,3.83
2023-02-05T21:36:35.478Z,3.00
2023-02-05T21:39:03.290Z,3.30
2023-02-05T21:41:31.120Z,3.57
2023-02-05T21:44:00.992Z,3.47
2023-02-05T21:46:30.311Z,3.63
2023-02-05T21:49:00.579Z,3.80
2023-02-05T21:51:28.972Z,2.90
2023-02-05T21:53:59.036Z,3.00
2023-02-05T21:56:28.675Z,3.60
2023-02-05T21:58:56.507Z,3.30
2023-02-05T22:01:25.413Z,3.70
2023-02-05T22:03:55.180Z,3.07
2023-02-05T22:06:24.175Z,4.03
2023-02-05T22:08:51.999Z,3.27
2023-02-05T22:11:20.959Z,3.20
2023-02-05T22:13:49.535Z,2.83
2023-02-05T22:16:18.857Z,3.17
2023-02-05T22:18:46.745Z,3.30
2023-02-05T22:21:17.548Z,2.97
2023-02-05T22:23:48.798Z,2.37
2023-02-05T22:26:16.666Z,3.90
2023-02-05T22:28:44.830Z,3.00
2023-02-05T22:31:14.390Z,2.73
2023-02-05T22:33:42.912Z,3.17
2023-02-05T22:36:11.255Z,2.70
2023-02-05T22:38:40.750Z,3.10
2023-02-05T22:41:08.874Z,3.80
2023-02-05T22:43:37.026Z,2.97
2023-02-05T22:46:05.625Z,3.80
2023-02-05T22:48:35.694Z,3.90
2023-02-05T22:51:03.750Z,3.10
2023-02-05T22:53:31.603Z,3.07
2023-02-05T22:56:02.824Z,2.67
2023-02-05T22:58:39.185Z,3.53
2023-02-05T23:01:10.084Z,4.30
2023-02-05T23:03:38.007Z,3.03
2023-02-05T23:06:10.123Z,3.20
2023-02-05T23:08:38.008Z,3.37
2023-02-05T23:11:07.638Z,4.00
2023-02-05T23:13:35.363Z,3.63
2023-02-05T23:16:07.683Z,3.67
2023-02-05T23:18:35.624Z,4.07
2023-02-05T23:21:07.298Z,3.47
2023-02-05T23:23:36.380Z,3.23
2023-02-05T23:26:09.120Z,3.40
2023-02-05T23:28:37.153Z,3.60
2023-02-05T23:31:05.123Z,3.60
2023-02-05T23:33:33.313Z,4.27
2023-02-05T23:36:01.137Z,3.53
2023-02-05T23:38:29.113Z,3.77
2023-02-05T23:40:57.042Z,3.70
2023-02-05T23:43:26.374Z,3.87
2023-02-05T23:45:54.483Z,4.90
2023-02-05T23:48:22.258Z,3.93
2023-02-05T23:50:50.304Z,4.03
2023-02-05T23:53:20.928Z,5.07
2023-02-05T23:55:49.557Z,3.57
2023-02-05T23:58:18.059Z,4.47
